createdAt,value
2023-03-16T00:06:25.226Z,18.5
2023-03-16T00:16:23.372Z,18.4
2023-03-16T00:26:24.558Z,18.4
2023-03-16T00:36:25.022Z,18.5
2023-03-16T00:46:25.194Z,18.4
2023-03-16T00:56:25.728Z,18.6
2023-03-16T01:06:26.929Z,18.4
2023-03-16T01:16:26.928Z,18.5
2023-03-16T01:26:27.449Z,18.5
2023-03-16T01:36:28.571Z,18.2
2023-03-16T01:46:29.021Z,18.5
2023-03-16T01:56:29.331Z,18.4
2023-03-16T02:06:29.852Z,18.5
2023-03-16T02:16:30.238Z,18.5
2023-03-16T02:26:30.907Z,18.6
2023-03-16T02:36:30.930Z,18.5
2023-03-16T02:46:32.149Z,18.6
2023-03-16T02:56:32.139Z,18.6
2023-03-16T03:06:07.183Z,18.4
2023-03-16T03:16:07.711Z,18.3
2023-03-16T03:26:06.552Z,18.4
2023-03-16T03:36:07.622Z,18.4
2023-03-16T03:46:09.205Z,18.3
2023-03-16T03:56:09.421Z,18.3
2023-03-16T04:06:10.726Z,18.3
2023-03-16T04:16:12.828Z,18.3
2023-03-16T04:26:14.408Z,18.4
2023-03-16T04:36:16.486Z,18.2
2023-03-16T04:46:18.475Z,18.3
2023-03-16T04:56:22.430Z,18.4
2023-03-16T05:06:20.533Z,18.4
2023-03-16T05:16:19.881Z,18.4
2023-03-16T05:26:21.294Z,18.4
2023-03-16T05:36:22.232Z,18.3
2023-03-16T05:46:21.967Z,18.5
2023-03-16T05:56:21.848Z,18.6
2023-03-16T06:06:21.776Z,18.3
2023-03-16T06:16:23.118Z,18.3
2023-03-16T06:26:23.992Z,18.2
2023-03-16T06:36:23.856Z,18.3
2023-03-16T06:46:23.646Z,18.4
2023-03-16T06:56:25.538Z,18.2
2023-03-16T07:06:26.339Z,18.3
2023-03-16T07:16:26.453Z,18.4
2023-03-16T07:26:27.291Z,18.5
2023-03-16T07:36:27.877Z,18.3
2023-03-16T07:46:28.808Z,18.3
2023-03-16T07:56:33.691Z,18.1
2023-03-16T08:06:28.293Z,18.3
2023-03-16T08:16:32.945Z,18.3
2023-03-16T08:26:39.258Z,18.1
2023-03-16T08:36:39.153Z,18.4
2023-03-16T08:46:50.915Z,18.2
2023-03-16T08:56:58.768Z,18.3
2023-03-16T09:06:13.317Z,17.8
2023-03-16T09:16:17.628Z,18.2
2023-03-16T09:26:19.904Z,18.1
2023-03-16T09:36:20.667Z,18.4
2023-03-16T09:46:20.640Z,18.3
2023-03-16T09:56:21.508Z,18.3
2023-03-16T10:06:23.830Z,18.3
2023-03-16T10:16:25.641Z,18.3
2023-03-16T10:26:27.250Z,18.3
2023-03-16T10:36:29.050Z,18.3
2023-03-16T10:46:31.063Z,18.3
2023-03-16T10:56:33.457Z,18.2
2023-03-16T11:06:34.040Z,17.8
2023-03-16T11:16:34.200Z,18.3
2023-03-16T11:26:35.027Z,18.1
2023-03-16T11:36:36.182Z,17.9
2023-03-16T11:46:36.388Z,18.3
2023-03-16T11:56:36.222Z,18.2
2023-03-16T12:06:36.120Z,18.2
2023-03-16T12:16:48.540Z,17.9
2023-03-16T12:26:37.710Z,18.2
2023-03-16T12:36:38.422Z,17.8
2023-03-16T12:46:39.216Z,18.3
2023-03-16T12:56:39.452Z,18.3
2023-03-16T13:06:39.431Z,18.1
2023-03-16T13:16:39.962Z,18.1
2023-03-16T13:26:40.074Z,18.1
2023-03-16T13:36:41.879Z,18.2
2023-03-16T13:46:42.151Z,18.1
2023-03-16T13:56:41.992Z,18.1
2023-03-16T14:06:41.700Z,18.1
2023-03-16T14:16:43.086Z,18.2
2023-03-16T14:26:43.212Z,18.2
2023-03-16T14:36:43.534Z,18.1
2023-03-16T14:46:43.591Z,18.2
2023-03-16T14:56:43.565Z,18
2023-03-16T15:06:08.777Z,18.1
2023-03-16T15:16:09.205Z,18.1
2023-03-16T15:26:10.043Z,18.1
2023-03-16T15:36:10.280Z,18
2023-03-16T15:46:10.847Z,18
2023-03-16T15:56:11.105Z,17.9
2023-03-16T16:06:12.357Z,18
2023-03-16T16:16:14.792Z,18.1
2023-03-16T16:26:16.606Z,17.9
2023-03-16T16:36:17.930Z,18
2023-03-16T16:46:19.877Z,17.9
2023-03-16T16:56:20.902Z,18
2023-03-16T17:06:21.458Z,18.1
2023-03-16T17:16:21.422Z,18.1
2023-03-16T17:26:22.232Z,18.3
2023-03-16T17:36:23.538Z,17.9
2023-03-16T17:46:24.165Z,18.3
2023-03-16T17:56:24.920Z,18
2023-03-16T18:06:24.907Z,18.1
2023-03-16T18:16:25.321Z,18.1
2023-03-16T18:26:25.562Z,18.1
2023-03-16T18:36:25.765Z,18.2
2023-03-16T18:46:25.983Z,17.8
2023-03-16T18:56:26.417Z,18.1
2023-03-16T19:06:27.643Z,17.9
2023-03-16T19:16:27.905Z,18
2023-03-16T19:26:28.526Z,17.9
2023-03-16T19:36:28.741Z,18.1
2023-03-16T19:46:29.204Z,18
2023-03-16T19:56:29.684Z,17.9
2023-03-16T20:06:29.948Z,17.9
2023-03-16T20:16:30.234Z,18.1
2023-03-16T20:26:30.795Z,17.9
2023-03-16T20:36:31.449Z,18.1
2023-03-16T20:46:31.966Z,17.9
2023-03-16T20:56:32.423Z,18.1
2023-03-16T21:06:07.466Z,17.9
2023-03-16T21:16:07.267Z,17.9
2023-03-16T21:26:07.562Z,17.9
2023-03-16T21:36:07.215Z,18
2023-03-16T21:46:07.572Z,17.8
2023-03-16T21:56:08.496Z,18.2
2023-03-16T22:06:09.335Z,18
2023-03-16T22:16:12.146Z,18
2023-03-16T22:26:12.355Z,18
2023-03-16T22:36:13.114Z,17.9
2023-03-16T22:46:15.438Z,18.1
2023-03-16T22:56:15.639Z,18
2023-03-16T23:06:16.272Z,17.9
2023-03-16T23:16:16.267Z,17.9
2023-03-16T23:26:16.628Z,17.9
2023-03-16T23:36:17.248Z,17.9
2023-03-16T23:46:17.144Z,17.9
2023-03-16T23:56:18.623Z,17.9
